ěÝzenÝ letovÚho provozu ╚eskÚ republiky
Letiste: LKTH Aktualizace: 16.04.2024 06:30:58  UTC
 METAR LKTH 16.04. 06:30 ...
METAR LKTH 160630Z AUTO VRB05G17KT 9999 BKN110 04/M01 Q1003=